Weather at Stockholm Västerås Airport

Public forecast

Using degrees Celsius for public forecast. Weather courtesy of forecast.io.

Current aviation weather report (METAR) for Stockholm Västerås Airport

Retrieved 2022/05/18 07:20 UTC (15 minutes ago):

ESOW 180720Z 21007KT 170V270 CAVOK 13/02 Q1025

Aviation forecast (TAF) for Stockholm Västerås Airport

Forecast is more than 12 hours old.

Retrieved 2021-06-01 03:36 UTC (12 months ago):

TAF TAF ESOW 190230Z 1903/1915 27005KT CAVOK